Time;durP1;ratioP1;P1;durP2;ratioP2;P2;SDS_P1;SDS_P2;PMS_P1;PMS_P2;Temp;Humidity;BMP_temperature;BMP_pressure;BME280_temperature;BME280_humidity;BME280_pressure;Samples;Min_cycle;Max_cycle;Signal;HPM_P1;HPM_P2
2023/11/22 00:02:34;;;;;;;20.55;10.02;;;;;;;6.05;100.00;102799.06;10391130;28;20060;-71
2023/11/22 00:07:35;;;;;;;12.30;10.07;;;;;;;5.99;100.00;102803.09;10373791;28;20045;-71
2023/11/22 00:12:38;;;;;;;12.45;9.90;;;;;;;5.94;100.00;102797.22;10373487;28;20126;-71
2023/11/22 00:17:38;;;;;;;17.40;11.98;;;;;;;5.89;100.00;102803.91;10373036;28;20116;-71
2023/11/22 00:22:39;;;;;;;12.93;11.18;;;;;;;5.85;100.00;102819.41;10371470;28;20041;-71
2023/11/22 00:27:39;;;;;;;20.63;12.50;;;;;;;5.89;100.00;102826.25;10372160;28;20030;-71
2023/11/22 00:32:42;;;;;;;14.30;11.40;;;;;;;5.91;100.00;102818.09;10373259;28;20026;-71
2023/11/22 00:37:43;;;;;;;19.25;10.95;;;;;;;5.90;100.00;102819.06;10371466;28;20041;-71
2023/11/22 00:42:43;;;;;;;15.70;11.73;;;;;;;5.80;100.00;102830.50;10371994;28;20080;-71
2023/11/22 00:47:43;;;;;;;12.80;9.93;;;;;;;5.69;100.00;102843.94;10387923;28;20124;-71
2023/11/22 00:52:45;;;;;;;11.50;10.32;;;;;;;5.65;100.00;102847.84;10355028;28;20042;-71
2023/11/22 00:57:45;;;;;;;22.17;11.45;;;;;;;5.60;100.00;102837.44;10370898;28;20038;-72
2023/11/22 01:02:46;;;;;;;20.17;12.57;;;;;;;5.54;100.00;102851.34;10387699;28;20038;-71
2023/11/22 01:07:46;;;;;;;16.52;11.63;;;;;;;5.46;100.00;102860.97;10371009;28;20049;-71
2023/11/22 01:12:47;;;;;;;16.60;12.07;;;;;;;5.39;100.00;102867.75;10371575;28;20096;-71
2023/11/22 01:17:48;;;;;;;13.50;12.02;;;;;;;5.40;100.00;102877.56;10372326;28;20153;-71
2023/11/22 01:22:49;;;;;;;16.48;12.07;;;;;;;5.44;100.00;102882.56;10372526;28;20044;-71
2023/11/22 01:27:50;;;;;;;12.60;11.30;;;;;;;5.45;100.00;102891.47;10369771;28;20057;-71
2023/11/22 01:32:50;;;;;;;18.48;11.77;;;;;;;5.42;100.00;102894.41;10354699;28;20037;-70
2023/11/22 01:37:51;;;;;;;18.00;13.13;;;;;;;5.41;100.00;102888.19;10369820;28;20133;-71
2023/11/22 01:42:54;;;;;;;18.10;13.20;;;;;;;5.31;100.00;102888.00;10370491;28;20056;-71
2023/11/22 01:47:56;;;;;;;16.92;12.27;;;;;;;5.24;100.00;102883.22;10370799;28;20092;-71
2023/11/22 01:52:56;;;;;;;13.48;11.68;;;;;;;5.11;100.00;102907.44;10369972;28;20083;-71
2023/11/22 01:57:57;;;;;;;13.88;11.43;;;;;;;5.00;100.00;102894.78;10369189;28;20042;-71
2023/11/22 02:03:00;;;;;;;16.92;12.70;;;;;;;4.98;100.00;102895.84;10354794;28;20121;-72
2023/11/22 02:08:00;;;;;;;16.98;12.57;;;;;;;5.03;100.00;102893.69;10372405;28;20037;-71
2023/11/22 02:13:04;;;;;;;26.20;12.52;;;;;;;5.07;100.00;102884.44;10337608;28;20036;-71
2023/11/22 02:18:06;;;;;;;19.80;12.10;;;;;;;4.95;100.00;102874.63;10370005;28;20401;-71
2023/11/22 02:23:11;;;;;;;14.43;11.52;;;;;;;4.86;100.00;102874.31;10371094;28;20030;-70
2023/11/22 02:28:12;;;;;;;18.00;12.82;;;;;;;4.85;100.00;102874.41;10370921;28;20338;-71
2023/11/22 02:33:12;;;;;;;15.80;13.15;;;;;;;4.89;100.00;102882.16;10369193;28;20038;-70
2023/11/22 02:38:12;;;;;;;20.67;13.98;;;;;;;4.99;100.00;102876.97;10387340;28;20393;-71
2023/11/22 02:43:13;;;;;;;13.35;11.80;;;;;;;5.05;100.00;102870.28;10360086;28;20112;-71
2023/11/22 02:48:13;;;;;;;14.52;12.52;;;;;;;5.07;100.00;102873.69;10376688;28;20049;-70
2023/11/22 02:53:14;;;;;;;19.00;13.02;;;;;;;5.08;100.00;102884.34;10377563;28;20113;-71
2023/11/22 02:58:14;;;;;;;16.67;12.30;;;;;;;5.04;100.00;102873.94;10379792;28;20057;-71
2023/11/22 03:03:15;;;;;;;19.83;12.52;;;;;;;5.07;100.00;102874.59;10379182;28;20033;-71
2023/11/22 03:08:16;;;;;;;18.63;13.07;;;;;;;4.97;100.00;102869.97;10393229;28;20055;-71
2023/11/22 03:13:17;;;;;;;22.85;14.35;;;;;;;4.89;100.00;102871.41;10359147;28;20037;-71
2023/11/22 03:18:17;;;;;;;14.48;11.88;;;;;;;4.87;100.00;102884.06;10375106;28;20481;-71
2023/11/22 03:23:18;;;;;;;20.52;16.40;;;;;;;4.86;100.00;102898.47;10375326;28;20057;-70
2023/11/22 03:28:19;;;;;;;19.75;13.90;;;;;;;4.85;100.00;102907.50;10375186;28;20394;-70
2023/11/22 03:33:20;;;;;;;17.13;13.52;;;;;;;4.85;100.00;102915.56;10374009;28;20156;-71
2023/11/22 03:38:20;;;;;;;16.90;13.02;;;;;;;4.87;100.00;102934.22;10373666;28;20038;-71
2023/11/22 03:43:21;;;;;;;15.02;12.75;;;;;;;4.89;100.00;102954.63;10375094;28;20029;-70
2023/11/22 03:48:23;;;;;;;15.07;12.15;;;;;;;4.94;100.00;102950.75;10373926;28;20058;-71
2023/11/22 03:53:23;;;;;;;17.02;13.20;;;;;;;4.95;100.00;102958.72;10375207;28;20038;-71
2023/11/22 03:58:24;;;;;;;22.98;13.93;;;;;;;4.95;100.00;102952.47;10374412;28;20421;-71
2023/11/22 04:03:24;;;;;;;17.23;13.18;;;;;;;4.97;100.00;102958.59;10374308;28;20033;-71
2023/11/22 04:08:25;;;;;;;18.23;12.70;;;;;;;4.94;100.00;102964.16;10374527;28;20034;-71
2023/11/22 04:13:25;;;;;;;18.42;14.93;;;;;;;4.90;100.00;102968.91;10375089;28;20123;-71
2023/11/22 04:18:26;;;;;;;21.15;14.95;;;;;;;4.84;100.00;102972.88;10374096;28;20056;-71
2023/11/22 04:23:27;;;;;;;17.25;13.98;;;;;;;4.72;100.00;102970.19;10374511;28;20449;-71
2023/11/22 04:28:27;;;;;;;22.00;14.52;;;;;;;4.68;100.00;102979.44;10374210;28;20041;-71
2023/11/22 04:33:28;;;;;;;17.00;14.65;;;;;;;4.70;100.00;102980.22;10373619;28;20030;-71
2023/11/22 04:38:28;;;;;;;18.13;13.98;;;;;;;4.74;100.00;102984.38;10374571;28;20466;-71
2023/11/22 04:43:29;;;;;;;19.17;13.65;;;;;;;4.80;100.00;102983.94;10373122;28;20117;-71
2023/11/22 04:48:29;;;;;;;24.38;15.10;;;;;;;4.97;100.00;102977.38;10371837;28;20034;-71
2023/11/22 04:53:30;;;;;;;19.05;14.52;;;;;;;5.05;100.00;102966.97;10370955;28;20131;-71
2023/11/22 04:58:32;;;;;;;31.77;18.52;;;;;;;5.09;100.00;102968.44;10372839;28;20547;-71
2023/11/22 05:03:32;;;;;;;19.88;16.48;;;;;;;5.09;100.00;102981.88;10370163;28;20398;-71
2023/11/22 05:08:34;;;;;;;25.20;18.58;;;;;;;5.12;100.00;102981.66;10371894;28;20045;-71
2023/11/22 05:13:34;;;;;;;21.10;16.15;;;;;;;5.13;100.00;102984.22;10370515;28;20034;-71
2023/11/22 05:18:35;;;;;;;24.83;18.60;;;;;;;5.14;100.00;102982.41;10371452;28;20389;-71
2023/11/22 05:23:37;;;;;;;25.42;18.45;;;;;;;5.15;100.00;102978.75;10372073;28;20037;-71
2023/11/22 05:28:37;;;;;;;23.77;17.90;;;;;;;5.11;100.00;102971.88;10372409;28;20441;-71
2023/11/22 05:33:38;;;;;;;23.17;19.00;;;;;;;5.09;100.00;102946.97;10371893;28;20040;-71
2023/11/22 05:38:39;;;;;;;23.17;16.92;;;;;;;5.05;100.00;102943.66;10371664;28;20173;-70
2023/11/22 05:43:42;;;;;;;20.33;18.08;;;;;;;5.02;100.00;102961.81;10372372;28;20125;-71
2023/11/22 05:48:43;;;;;;;27.50;18.92;;;;;;;4.96;100.00;102971.16;10372703;28;20061;-71
2023/11/22 05:53:43;;;;;;;23.63;17.48;;;;;;;5.00;100.00;102963.72;10371751;28;20065;-72
2023/11/22 05:58:43;;;;;;;31.05;18.73;;;;;;;4.95;100.00;102963.22;10370036;28;20060;-71
2023/11/22 06:03:44;;;;;;;28.92;20.30;;;;;;;4.94;100.00;102980.28;10370973;28;20066;-71
2023/11/22 06:08:44;;;;;;;28.15;18.15;;;;;;;4.93;100.00;102995.53;10371919;28;20377;-71
2023/11/22 06:13:46;;;;;;;29.88;20.50;;;;;;;4.92;100.00;103004.56;10375858;28;20076;-71
2023/11/22 06:18:47;;;;;;;22.00;18.27;;;;;;;4.94;100.00;103015.19;10379798;28;20034;-71
2023/11/22 06:23:47;;;;;;;22.77;15.88;;;;;;;4.97;100.00;103028.38;10378533;28;20025;-70
2023/11/22 06:28:49;;;;;;;24.13;17.77;;;;;;;4.97;100.00;103013.13;10394358;28;20034;-70
2023/11/22 06:33:49;;;;;;;22.27;16.75;;;;;;;4.97;100.00;103010.44;10394821;28;20022;-71
2023/11/22 06:38:50;;;;;;;24.88;19.35;;;;;;;4.93;100.00;102990.16;10377909;28;20121;-71
2023/11/22 06:43:50;;;;;;;22.85;17.17;;;;;;;4.90;100.00;102988.56;10377060;28;20030;-71
2023/11/22 06:48:50;;;;;;;26.40;19.58;;;;;;;4.91;100.00;102978.66;10378719;28;20065;-70
2023/11/22 06:53:54;;;;;;;27.52;18.58;;;;;;;4.86;100.00;102981.69;10378054;28;20041;-71
2023/11/22 06:58:55;;;;;;;26.75;18.67;;;;;;;4.87;100.00;102983.41;10376984;28;20049;-71
2023/11/22 07:03:55;;;;;;;29.05;19.02;;;;;;;4.96;100.00;103005.19;10375710;28;20030;-70
2023/11/22 07:08:55;;;;;;;24.73;17.75;;;;;;;4.95;100.00;103009.72;10376695;28;20034;-71
2023/11/22 07:13:57;;;;;;;26.75;19.45;;;;;;;4.95;100.00;103030.34;10377460;28;20030;-70
2023/11/22 07:18:57;;;;;;;24.88;18.88;;;;;;;4.92;100.00;103039.47;10375435;28;20030;-71
2023/11/22 07:24:01;;;;;;;29.38;17.85;;;;;;;4.94;100.00;103017.88;10375121;28;20416;-71
2023/11/22 07:29:02;;;;;;;33.50;20.25;;;;;;;5.01;100.00;103019.13;10375938;28;20073;-70
2023/11/22 07:34:02;;;;;;;27.05;20.95;;;;;;;4.92;100.00;103009.94;10375786;28;20434;-71
2023/11/22 07:39:02;;;;;;;26.45;20.23;;;;;;;4.85;100.00;103022.94;10374970;28;20038;-71
2023/11/22 07:44:03;;;;;;;35.92;18.20;;;;;;;4.82;100.00;103041.09;10375752;28;20026;-71
2023/11/22 07:49:04;;;;;;;32.78;20.95;;;;;;;4.81;100.00;103058.13;10375581;28;20129;-71
2023/11/22 07:54:04;;;;;;;26.45;20.05;;;;;;;4.78;100.00;103059.19;10375469;28;20489;-71
2023/11/22 07:59:05;;;;;;;28.90;19.60;;;;;;;4.78;100.00;103074.44;10375404;28;20128;-71
2023/11/22 08:04:06;;;;;;;26.83;18.67;;;;;;;4.87;100.00;103087.25;10374137;28;20026;-70
2023/11/22 08:09:09;;;;;;;26.48;20.40;;;;;;;5.11;100.00;103074.78;10375042;28;20038;-71
2023/11/22 08:14:09;;;;;;;28.13;19.60;;;;;;;5.35;100.00;103082.91;10372821;28;20410;-71
2023/11/22 08:19:09;;;;;;;37.13;22.25;;;;;;;5.55;100.00;103078.81;10373169;28;20057;-71
2023/11/22 08:24:12;;;;;;;28.23;20.98;;;;;;;5.87;100.00;103083.69;10374577;28;20030;-71
2023/11/22 08:29:14;;;;;;;32.15;21.02;;;;;;;6.04;100.00;103087.81;10372882;28;20079;-71
2023/11/22 08:34:15;;;;;;;28.48;21.88;;;;;;;6.33;100.00;103106.31;10372522;28;20030;-71
2023/11/22 08:39:15;;;;;;;23.90;16.20;;;;;;;6.55;100.00;103101.03;10373876;28;20045;-71
2023/11/22 08:44:16;;;;;;;23.88;16.67;;;;;;;6.55;100.00;103079.47;10373639;28;20511;-71
2023/11/22 08:49:17;;;;;;;30.95;19.30;;;;;;;6.44;100.00;103077.59;10372906;28;20256;-71
2023/11/22 08:54:17;;;;;;;23.13;18.80;;;;;;;6.56;100.00;103069.56;10372778;28;20037;-71
2023/11/22 08:59:18;;;;;;;24.52;17.15;;;;;;;6.63;100.00;103068.97;10372726;28;20359;-71
2023/11/22 09:04:18;;;;;;;26.25;16.67;;;;;;;6.50;100.00;103066.34;10372294;28;20033;-71
2023/11/22 09:09:19;;;;;;;21.10;15.57;;;;;;;6.62;100.00;103067.25;10372013;28;20030;-71
2023/11/22 09:14:20;;;;;;;25.95;17.67;;;;;;;6.69;100.00;103079.25;10371756;28;20074;-71
2023/11/22 09:19:24;;;;;;;39.30;18.42;;;;;;;6.66;100.00;103074.13;10372008;28;20026;-71
2023/11/22 09:24:25;;;;;;;22.55;16.83;;;;;;;6.49;100.00;103080.81;10371720;28;20026;-71
2023/11/22 09:29:25;;;;;;;28.20;16.98;;;;;;;6.45;100.00;103091.94;10371879;28;20034;-71
2023/11/22 09:34:26;;;;;;;32.78;19.20;;;;;;;6.44;100.00;103085.66;10372323;28;20033;-71
2023/11/22 09:39:27;;;;;;;28.42;18.27;;;;;;;6.47;100.00;103077.34;10371553;28;20188;-71
2023/11/22 09:44:27;;;;;;;29.73;18.40;;;;;;;6.47;100.00;103065.75;10386558;28;20052;-71
2023/11/22 09:49:28;;;;;;;23.35;15.57;;;;;;;6.54;100.00;103069.69;10379566;28;20426;-71
2023/11/22 09:54:29;;;;;;;29.00;17.30;;;;;;;6.82;100.00;103073.78;10382735;28;20053;-72
2023/11/22 09:59:29;;;;;;;34.28;18.35;;;;;;;7.31;100.00;103071.78;10382395;28;20516;-71
2023/11/22 10:04:31;;;;;;;27.15;17.55;;;;;;;7.89;100.00;103075.13;10385412;28;20037;-71
2023/11/22 10:09:32;;;;;;;29.75;17.17;;;;;;;8.38;100.00;103058.38;10383483;28;20037;-71
2023/11/22 10:14:34;;;;;;;26.63;17.67;;;;;;;9.08;100.00;103035.22;10382910;28;20036;-71
2023/11/22 10:19:35;;;;;;;20.98;15.05;;;;;;;9.40;100.00;103027.94;10384383;28;20098;-71
2023/11/22 10:24:35;;;;;;;21.10;16.38;;;;;;;8.94;100.00;103022.09;10385002;28;20033;-71
2023/11/22 10:29:36;;;;;;;20.25;12.02;;;;;;;8.11;100.00;103010.28;10382763;28;20041;-71
2023/11/22 10:34:37;;;;;;;17.98;14.32;;;;;;;7.94;100.00;102994.63;10383982;28;20037;-71
2023/11/22 10:39:37;;;;;;;23.90;16.13;;;;;;;8.01;100.00;103000.38;10382538;28;20045;-71
2023/11/22 10:44:40;;;;;;;21.00;15.20;;;;;;;8.08;100.00;103002.44;10381970;28;20057;-71
2023/11/22 10:49:42;;;;;;;18.80;14.88;;;;;;;8.09;100.00;103019.47;10383549;28;20045;-71
2023/11/22 10:54:45;;;;;;;21.58;11.85;;;;;;;7.90;100.00;103003.97;10384649;28;20434;-71
2023/11/22 10:59:45;;;;;;;28.92;14.27;;;;;;;7.87;100.00;102990.75;10379561;28;20045;-71
2023/11/22 11:04:59;;;;;;;24.20;15.85;;;;;;;8.09;100.00;102970.91;10359431;28;20038;-71
2023/11/22 11:10:00;;;;;;;15.98;13.52;;;;;;;8.15;100.00;102970.41;10378032;28;20026;-71
2023/11/22 11:15:00;;;;;;;19.20;14.40;;;;;;;8.14;100.00;102977.63;10376877;28;20030;-71
2023/11/22 11:20:05;;;;;;;18.02;13.45;;;;;;;8.40;100.00;102971.03;10376342;28;20428;-71
2023/11/22 11:25:08;;;;;;;18.90;13.23;;;;;;;8.38;100.00;102972.00;10376644;28;20466;-71
2023/11/22 11:30:43;;;;;;;18.58;13.35;;;;;;;8.44;100.00;102967.06;10375006;28;20028;-71
2023/11/22 11:35:46;;;;;;;14.50;11.50;;;;;;;8.49;100.00;102964.84;10377296;28;20030;-71
2023/11/22 11:40:50;;;;;;;13.82;11.30;;;;;;;8.87;100.00;102960.59;10375812;28;20025;-71
2023/11/22 11:45:53;;;;;;;13.55;9.88;;;;;;;8.93;100.00;102966.31;10375075;28;20112;-71
2023/11/22 11:50:53;;;;;;;11.65;8.88;;;;;;;8.93;100.00;102949.25;10357760;28;20064;-71
2023/11/22 11:55:54;;;;;;;13.88;9.98;;;;;;;9.00;100.00;102940.47;10357898;28;20022;-71
2023/11/22 12:00:54;;;;;;;16.10;10.90;;;;;;;9.25;100.00;102922.03;10357398;28;20076;-72
2023/11/22 12:05:56;;;;;;;12.10;9.13;;;;;;;8.98;100.00;102915.41;10374418;28;20117;-71
2023/11/22 12:10:58;;;;;;;12.18;10.13;;;;;;;8.74;100.00;102896.00;10374384;28;20072;-72
2023/11/22 12:15:59;;;;;;;17.63;13.45;;;;;;;8.81;100.00;102889.94;10372838;28;20032;-71
2023/11/22 12:21:00;;;;;;;18.48;12.05;;;;;;;8.74;100.00;102885.19;10356152;28;20068;-71
2023/11/22 12:26:01;;;;;;;16.45;11.65;;;;;;;8.51;100.00;102885.38;10372599;28;20060;-72
2023/11/22 12:31:09;;;;;;;18.17;11.35;;;;;;;8.39;100.00;102886.47;10372534;28;20029;-71
2023/11/22 12:36:10;;;;;;;16.23;11.70;;;;;;;8.81;100.00;102875.56;10373620;28;20109;-71
2023/11/22 12:41:11;;;;;;;18.63;12.45;;;;;;;8.91;100.00;102872.88;10371872;28;20420;-71
2023/11/22 12:46:13;;;;;;;18.25;12.10;;;;;;;8.89;100.00;102858.66;10373303;28;20129;-71
2023/11/22 12:51:17;;;;;;;16.27;11.50;;;;;;;8.74;100.00;102866.28;10374168;28;20037;-71
2023/11/22 12:56:17;;;;;;;19.15;13.82;;;;;;;8.76;100.00;102856.19;10372870;28;20061;-71
2023/11/22 13:01:18;;;;;;;18.15;11.32;;;;;;;8.71;100.00;102847.66;10372394;28;20440;-71
2023/11/22 13:06:19;;;;;;;13.98;11.45;;;;;;;8.75;100.00;102835.59;10370473;28;20041;-71
2023/11/22 13:11:19;;;;;;;26.30;14.02;;;;;;;8.64;100.00;102833.84;10372592;28;20033;-71
2023/11/22 13:16:20;;;;;;;18.17;14.05;;;;;;;8.69;100.00;102841.53;10372174;28;20105;-71
2023/11/22 13:21:21;;;;;;;14.68;13.05;;;;;;;8.55;100.00;102827.44;10371868;28;20025;-71
2023/11/22 13:26:21;;;;;;;15.75;13.18;;;;;;;8.51;100.00;102825.13;10373161;28;20029;-71
2023/11/22 13:31:22;;;;;;;16.65;12.77;;;;;;;8.49;100.00;102827.13;10371266;28;20409;-71
2023/11/22 13:36:23;;;;;;;19.48;15.57;;;;;;;8.36;100.00;102827.34;10371199;28;20037;-71
2023/11/22 13:41:25;;;;;;;15.73;13.38;;;;;;;8.21;100.00;102815.19;10371710;28;20029;-71
2023/11/22 13:46:26;;;;;;;23.48;13.60;;;;;;;8.29;100.00;102812.66;10371345;28;20105;-71
2023/11/22 13:51:27;;;;;;;20.30;14.23;;;;;;;8.26;100.00;102788.63;10370151;28;20458;-71
2023/11/22 13:56:28;;;;;;;22.45;14.45;;;;;;;8.12;100.00;102790.69;10372246;28;20434;-71
2023/11/22 14:01:28;;;;;;;17.73;14.98;;;;;;;8.11;100.00;102772.81;10371857;28;20093;-71
2023/11/22 14:06:28;;;;;;;21.55;15.00;;;;;;;8.14;100.00;102772.53;10371584;28;20092;-71
2023/11/22 14:11:30;;;;;;;16.42;13.30;;;;;;;8.14;100.00;102756.34;10371243;28;20034;-71
2023/11/22 14:16:31;;;;;;;17.13;12.57;;;;;;;8.10;100.00;102763.03;10370303;28;20140;-71
2023/11/22 14:21:32;;;;;;;15.93;12.80;;;;;;;8.07;100.00;102766.00;10370601;28;20378;-71
2023/11/22 14:26:33;;;;;;;21.65;14.50;;;;;;;7.95;100.00;102758.97;10370450;28;20373;-71
2023/11/22 14:31:33;;;;;;;18.42;14.27;;;;;;;7.99;100.00;102759.56;10371318;28;20030;-71
2023/11/22 14:36:36;;;;;;;19.20;13.68;;;;;;;7.87;100.00;102756.06;10376544;28;20079;-71
2023/11/22 14:41:37;;;;;;;14.15;11.85;;;;;;;7.77;100.00;102774.06;10378671;28;20034;-71
2023/11/22 14:46:37;;;;;;;17.05;12.32;;;;;;;7.65;100.00;102775.97;10378149;28;20105;-71
2023/11/22 14:51:38;;;;;;;17.17;13.05;;;;;;;7.60;100.00;102806.03;10375470;28;20365;-71
2023/11/22 14:56:39;;;;;;;20.65;13.13;;;;;;;7.46;100.00;102811.72;10393239;28;20045;-71
2023/11/22 15:01:42;;;;;;;15.60;13.40;;;;;;;7.36;100.00;102818.88;10377059;28;20050;-71
2023/11/22 15:06:44;;;;;;;16.75;13.90;;;;;;;7.34;100.00;102802.84;10376099;28;20049;-70
2023/11/22 15:11:45;;;;;;;17.20;12.38;;;;;;;7.28;100.00;102784.50;10376575;28;20155;-71
2023/11/22 15:16:45;;;;;;;22.85;14.80;;;;;;;7.20;100.00;102777.06;10376470;28;20037;-71
2023/11/22 15:21:45;;;;;;;17.98;13.57;;;;;;;7.26;100.00;102754.13;10375882;28;20033;-71
2023/11/22 15:26:46;;;;;;;16.83;12.90;;;;;;;7.19;100.00;102737.63;10375718;28;20374;-71
2023/11/22 15:31:47;;;;;;;16.23;12.07;;;;;;;7.05;100.00;102713.72;10374864;28;20099;-71
2023/11/22 15:36:47;;;;;;;12.00;9.75;;;;;;;7.03;100.00;102710.28;10375895;28;20085;-71
2023/11/22 15:41:48;;;;;;;25.23;14.90;;;;;;;7.10;100.00;102733.03;10376621;28;20448;-71
2023/11/22 15:46:48;;;;;;;18.52;13.10;;;;;;;7.10;100.00;102741.09;10373569;28;20045;-70
2023/11/22 15:51:49;;;;;;;22.98;14.23;;;;;;;7.15;100.00;102729.97;10375306;28;20034;-71
2023/11/22 15:56:49;;;;;;;16.00;12.98;;;;;;;7.15;100.00;102709.25;10376015;28;20038;-71
2023/11/22 16:01:50;;;;;;;27.02;14.52;;;;;;;7.08;100.00;102702.66;10376834;28;20339;-70
2023/11/22 16:06:51;;;;;;;21.85;15.52;;;;;;;7.19;100.00;102691.81;10375124;28;20073;-71
2023/11/22 16:11:51;;;;;;;23.08;16.60;;;;;;;7.36;100.00;102703.00;10374777;28;20025;-72
2023/11/22 16:16:52;;;;;;;24.17;14.88;;;;;;;7.40;100.00;102709.81;10373461;28;20042;-71
2023/11/22 16:21:52;;;;;;;21.23;14.32;;;;;;;7.40;100.00;102705.31;10374323;28;20441;-71
2023/11/22 16:26:53;;;;;;;30.63;18.58;;;;;;;7.36;100.00;102693.06;10373610;28;20033;-71
2023/11/22 16:31:53;;;;;;;20.42;15.82;;;;;;;7.33;100.00;102677.16;10373013;28;20041;-71
2023/11/22 16:36:53;;;;;;;20.98;17.42;;;;;;;7.36;100.00;102670.66;10372951;28;20030;-71
2023/11/22 16:41:54;;;;;;;26.65;17.40;;;;;;;7.41;100.00;102666.59;10373976;28;20084;-71
2023/11/22 16:46:54;;;;;;;27.40;19.27;;;;;;;7.40;100.00;102655.91;10371937;28;20373;-71
2023/11/22 16:51:55;;;;;;;30.17;18.60;;;;;;;7.45;100.00;102662.63;10374141;28;20033;-71
2023/11/22 16:56:56;;;;;;;24.83;18.65;;;;;;;7.45;100.00;102659.94;10372490;28;20115;-71
2023/11/22 17:01:58;;;;;;;26.75;20.75;;;;;;;7.34;100.00;102664.53;10373266;28;20129;-71
2023/11/22 17:06:59;;;;;;;24.10;19.98;;;;;;;7.27;100.00;102666.91;10371282;28;20026;-71
2023/11/22 17:11:59;;;;;;;31.48;20.08;;;;;;;7.28;100.00;102655.16;10372678;28;20471;-71
2023/11/22 17:16:59;;;;;;;28.35;19.55;;;;;;;7.21;100.00;102665.63;10373086;28;20088;-71
2023/11/22 17:22:01;;;;;;;32.20;22.48;;;;;;;7.16;100.00;102640.91;10372673;28;20033;-71
2023/11/22 17:27:02;;;;;;;28.65;17.08;;;;;;;7.03;100.00;102647.47;10371896;28;20034;-71
2023/11/22 17:32:02;;;;;;;27.67;20.13;;;;;;;7.06;100.00;102645.38;10373235;28;20034;-71
2023/11/22 17:37:03;;;;;;;28.55;18.38;;;;;;;7.04;100.00;102644.66;10372624;28;20044;-71
2023/11/22 17:42:03;;;;;;;24.77;17.05;;;;;;;7.06;100.00;102640.00;10370909;28;20099;-71
2023/11/22 17:47:05;;;;;;;25.70;18.58;;;;;;;7.13;100.00;102641.16;10370996;28;20045;-71
2023/11/22 17:52:05;;;;;;;27.20;19.10;;;;;;;7.14;100.00;102640.16;10371400;28;20453;-71
2023/11/22 17:57:07;;;;;;;24.63;17.35;;;;;;;7.31;100.00;102662.97;10369764;28;20061;-71
2023/11/22 18:02:07;;;;;;;27.90;18.23;;;;;;;7.47;100.00;102651.72;10371767;28;20381;-71
2023/11/22 18:07:08;;;;;;;24.25;16.45;;;;;;;7.57;100.00;102639.13;10372362;28;20033;-71
2023/11/22 18:12:10;;;;;;;20.40;14.07;;;;;;;7.64;100.00;102637.59;10379791;28;20038;-71
2023/11/22 18:17:10;;;;;;;28.92;15.82;;;;;;;7.77;100.00;102625.72;10379255;28;20036;-71
2023/11/22 18:22:11;;;;;;;21.58;16.25;;;;;;;7.83;100.00;102619.78;10380347;28;20390;-71
2023/11/22 18:27:11;;;;;;;28.63;16.70;;;;;;;7.88;100.00;102601.31;10378853;28;20040;-71
2023/11/22 18:32:12;;;;;;;16.35;12.02;;;;;;;7.86;100.00;102600.63;10377980;28;20075;-71
2023/11/22 18:37:13;;;;;;;20.55;13.80;;;;;;;7.84;100.00;102587.28;10378494;28;20052;-71
2023/11/22 18:42:14;;;;;;;24.75;14.73;;;;;;;8.01;100.00;102596.56;10378126;28;20048;-71
2023/11/22 18:47:14;;;;;;;26.20;15.25;;;;;;;7.98;100.00;102601.38;10377799;28;20040;-71
2023/11/22 18:52:14;;;;;;;21.95;14.98;;;;;;;8.05;100.00;102605.22;10377845;28;20033;-71
2023/11/22 18:57:15;;;;;;;17.67;13.63;;;;;;;8.14;100.00;102613.34;10377759;28;20094;-71
2023/11/22 19:02:16;;;;;;;15.65;12.70;;;;;;;8.21;100.00;102601.97;10378536;28;20397;-71
2023/11/22 19:07:17;;;;;;;15.57;11.50;;;;;;;8.28;100.00;102592.31;10377483;28;20115;-71
2023/11/22 19:12:18;;;;;;;19.10;12.45;;;;;;;8.30;100.00;102572.31;10377131;28;20100;-71
2023/11/22 19:17:22;;;;;;;15.77;12.23;;;;;;;8.17;100.00;102563.63;10376553;28;20532;-71
2023/11/22 19:22:22;;;;;;;19.33;12.45;;;;;;;8.09;100.00;102561.63;10375333;28;20112;-71
2023/11/22 19:27:22;;;;;;;19.58;12.30;;;;;;;8.07;100.00;102576.25;10376934;28;20038;-71
2023/11/22 19:32:23;;;;;;;23.15;13.23;;;;;;;8.01;100.00;102583.06;10376019;28;20053;-71
2023/11/22 19:37:27;;;;;;;23.75;13.52;;;;;;;7.95;100.00;102572.84;10376631;28;20454;-71
2023/11/22 19:42:29;;;;;;;16.17;11.57;;;;;;;7.89;100.00;102563.44;10375943;28;20034;-72
2023/11/22 19:47:29;;;;;;;23.85;13.27;;;;;;;7.96;100.00;102561.03;10375248;28;20120;-72
2023/11/22 19:52:29;;;;;;;14.82;12.25;;;;;;;8.01;100.00;102552.50;10375599;28;20160;-72
2023/11/22 19:57:30;;;;;;;19.85;11.57;;;;;;;8.09;100.00;102534.63;10375600;28;20041;-72
2023/11/22 20:02:31;;;;;;;21.85;13.20;;;;;;;8.27;100.00;102552.84;10375286;28;20137;-72
2023/11/22 20:07:31;;;;;;;18.88;11.55;;;;;;;8.42;100.00;102534.38;10376091;28;20067;-72
2023/11/22 20:12:33;;;;;;;20.45;8.73;;;;;;;8.73;100.00;102527.81;10374078;28;20416;-72
2023/11/22 20:17:33;;;;;;;15.80;7.65;;;;;;;9.11;100.00;102527.84;10373085;28;20120;-72
2023/11/22 20:22:34;;;;;;;14.88;9.10;;;;;;;9.29;100.00;102515.25;10374178;28;20043;-72
2023/11/22 20:27:34;;;;;;;14.18;7.32;;;;;;;9.44;100.00;102507.47;10374054;28;20033;-72
2023/11/22 20:32:35;;;;;;;12.95;6.43;;;;;;;9.55;100.00;102502.72;10372805;28;20037;-71
2023/11/22 20:37:36;;;;;;;20.20;6.60;;;;;;;9.62;100.00;102502.13;10374423;28;20073;-72
2023/11/22 20:42:36;;;;;;;30.00;9.15;;;;;;;9.68;100.00;102510.47;10373736;28;20037;-72
2023/11/22 20:47:37;;;;;;;11.50;8.30;;;;;;;9.72;100.00;102505.59;10374009;28;20052;-71
2023/11/22 20:52:38;;;;;;;14.27;9.63;;;;;;;9.77;100.00;102506.84;10373718;28;20413;-71
2023/11/22 20:57:39;;;;;;;16.88;9.02;;;;;;;9.83;100.00;102505.41;10373088;28;20056;-72
2023/11/22 21:02:40;;;;;;;15.18;10.77;;;;;;;9.85;100.00;102506.06;10373338;28;20041;-72
2023/11/22 21:07:40;;;;;;;12.63;8.43;;;;;;;9.86;100.00;102499.69;10372655;28;20136;-72
2023/11/22 21:12:41;;;;;;;32.15;10.50;;;;;;;9.89;100.00;102496.66;10372094;28;20029;-72
2023/11/22 21:17:41;;;;;;;17.73;9.52;;;;;;;9.90;100.00;102497.53;10372409;28;20114;-72
2023/11/22 21:22:43;;;;;;;16.38;9.75;;;;;;;9.95;100.00;102496.03;10372290;28;20065;-72
2023/11/22 21:27:44;;;;;;;11.40;10.23;;;;;;;9.94;100.00;102480.81;10372629;28;20381;-72
2023/11/22 21:32:45;;;;;;;19.52;11.15;;;;;;;9.97;100.00;102464.25;10372268;28;20026;-72
2023/11/22 21:37:45;;;;;;;11.85;9.82;;;;;;;9.99;100.00;102458.72;10372524;28;20034;-72
2023/11/22 21:42:45;;;;;;;12.48;7.53;;;;;;;10.00;100.00;102457.69;10370507;28;20026;-71
2023/11/22 21:47:46;;;;;;;24.67;7.78;;;;;;;10.09;100.00;102461.31;10371989;28;20034;-71
2023/11/22 21:52:46;;;;;;;14.38;6.82;;;;;;;10.13;100.00;102452.72;10371792;28;20034;-71
2023/11/22 21:57:47;;;;;;;16.40;7.88;;;;;;;10.20;100.00;102448.38;10370888;28;20062;-71
2023/11/22 22:02:47;;;;;;;12.27;6.45;;;;;;;10.26;100.00;102438.81;10372598;28;20417;-71
2023/11/22 22:07:48;;;;;;;18.90;7.97;;;;;;;10.32;100.00;102443.59;10372040;28;20056;-71
2023/11/22 22:12:48;;;;;;;19.70;6.63;;;;;;;10.40;100.00;102440.09;10371404;28;20037;-72
2023/11/22 22:17:48;;;;;;;29.08;5.55;;;;;;;10.43;100.00;102437.94;10370801;28;20030;-72
2023/11/22 22:22:49;;;;;;;10.65;6.07;;;;;;;10.48;100.00;102422.03;10370455;28;20034;-71
2023/11/22 22:27:49;;;;;;;15.52;5.82;;;;;;;10.57;100.00;102422.94;10371942;28;20026;-72
2023/11/22 22:32:50;;;;;;;16.23;5.40;;;;;;;10.59;100.00;102429.06;10371256;28;20077;-72